sensor_id;sensor_type;location;lat;lon;timestamp;pressure;altitude;pressure_sealevel;temperature
15333;BMP180;7766;51.534;6.722;2023-06-04T00:00:38;101448.50;;;17.16
15333;BMP180;7766;51.534;6.722;2023-06-04T00:01:39;101442.78;;;17.19
15333;BMP180;7766;51.534;6.722;2023-06-04T00:02:40;101445.25;;;17.21
15333;BMP180;7766;51.534;6.722;2023-06-04T00:03:41;101444.44;;;17.20
15333;BMP180;7766;51.534;6.722;2023-06-04T00:04:42;101445.25;;;17.21
15333;BMP180;7766;51.534;6.722;2023-06-04T00:05:43;101444.44;;;16.95
15333;BMP180;7766;51.534;6.722;2023-06-04T00:06:44;101446.47;;;17.06
15333;BMP180;7766;51.534;6.722;2023-06-04T00:07:45;101446.47;;;16.93
15333;BMP180;7766;51.534;6.722;2023-06-04T00:08:46;101441.97;;;16.87
15333;BMP180;7766;51.534;6.722;2023-06-04T00:09:47;101446.69;;;16.92
15333;BMP180;7766;51.534;6.722;2023-06-04T00:10:48;101447.50;;;16.99
15333;BMP180;7766;51.534;6.722;2023-06-04T00:11:50;101443.03;;;16.99
15333;BMP180;7766;51.534;6.722;2023-06-04T00:12:51;101442.81;;;17.00
15333;BMP180;7766;51.534;6.722;2023-06-04T00:13:52;101442.22;;;17.05
15333;BMP180;7766;51.534;6.722;2023-06-04T00:14:53;101439.97;;;17.02
15333;BMP180;7766;51.534;6.722;2023-06-04T00:15:54;101444.44;;;16.95
15333;BMP180;7766;51.534;6.722;2023-06-04T00:16:55;101437.50;;;16.94
15333;BMP180;7766;51.534;6.722;2023-06-04T00:17:56;101444.84;;;16.99
15333;BMP180;7766;51.534;6.722;2023-06-04T00:18:57;101439.75;;;16.91
15333;BMP180;7766;51.534;6.722;2023-06-04T00:19:58;101434.19;;;16.80
15333;BMP180;7766;51.534;6.722;2023-06-04T00:20:59;101438.09;;;16.83
15333;BMP180;7766;51.534;6.722;2023-06-04T00:21:59;101439.72;;;16.84
15333;BMP180;7766;51.534;6.722;2023-06-04T00:23:00;101438.91;;;16.84
15333;BMP180;7766;51.534;6.722;2023-06-04T00:24:02;101441.47;;;16.21
15333;BMP180;7766;51.534;6.722;2023-06-04T00:25:03;101435.38;;;16.46
15333;BMP180;7766;51.534;6.722;2023-06-04T00:26:04;101441.53;;;16.52
15333;BMP180;7766;51.534;6.722;2023-06-04T00:27:09;101438.25;;;16.57
15333;BMP180;7766;51.534;6.722;2023-06-04T00:28:10;101440.91;;;16.57
15333;BMP180;7766;51.534;6.722;2023-06-04T00:29:11;101440.31;;;16.61
15333;BMP180;7766;51.534;6.722;2023-06-04T00:30:12;101445.41;;;16.69
15333;BMP180;7766;51.534;6.722;2023-06-04T00:31:14;101444.59;;;16.50
15333;BMP180;7766;51.534;6.722;2023-06-04T00:32:15;101439.09;;;16.57
15333;BMP180;7766;51.534;6.722;2023-06-04T00:33:16;101439.91;;;16.58
15333;BMP180;7766;51.534;6.722;2023-06-04T00:34:17;101446.25;;;16.63
15333;BMP180;7766;51.534;6.722;2023-06-04T00:35:19;101444.00;;;16.60
15333;BMP180;7766;51.534;6.722;2023-06-04T00:36:21;101450.53;;;16.58
15333;BMP180;7766;51.534;6.722;2023-06-04T00:37:26;101444.00;;;16.60
15333;BMP180;7766;51.534;6.722;2023-06-04T00:38:28;101447.03;;;16.64
15333;BMP180;7766;51.534;6.722;2023-06-04T00:39:29;101451.97;;;16.60
15333;BMP180;7766;51.534;6.722;2023-06-04T00:40:30;101440.31;;;16.61
15333;BMP180;7766;51.534;6.722;2023-06-04T00:41:31;101446.84;;;16.65
15333;BMP180;7766;51.534;6.722;2023-06-04T00:42:32;101442.38;;;16.66
15333;BMP180;7766;51.534;6.722;2023-06-04T00:43:33;101440.50;;;16.66
15333;BMP180;7766;51.534;6.722;2023-06-04T00:44:36;101437.66;;;16.61
15333;BMP180;7766;51.534;6.722;2023-06-04T00:45:37;101439.50;;;16.67
15333;BMP180;7766;51.534;6.722;2023-06-04T00:46:38;101440.69;;;16.46
15333;BMP180;7766;51.534;6.722;2023-06-04T00:47:40;101438.66;;;16.54
15333;BMP180;7766;51.534;6.722;2023-06-04T00:48:41;101441.13;;;16.55
15333;BMP180;7766;51.534;6.722;2023-06-04T00:49:44;101439.88;;;16.45
15333;BMP180;7766;51.534;6.722;2023-06-04T00:50:46;101434.97;;;16.49
15333;BMP180;7766;51.534;6.722;2023-06-04T00:51:48;101439.50;;;16.54
15333;BMP180;7766;51.534;6.722;2023-06-04T00:52:50;101438.47;;;16.55
15333;BMP180;7766;51.534;6.722;2023-06-04T00:53:52;101440.69;;;16.58
15333;BMP180;7766;51.534;6.722;2023-06-04T00:54:53;101429.91;;;16.60
15333;BMP180;7766;51.534;6.722;2023-06-04T00:55:55;101441.34;;;16.60
15333;BMP180;7766;51.534;6.722;2023-06-04T00:56:56;101436.25;;;16.65
15333;BMP180;7766;51.534;6.722;2023-06-04T00:57:57;101439.06;;;16.64
15333;BMP180;7766;51.534;6.722;2023-06-04T00:58:58;101436.16;;;16.27
15333;BMP180;7766;51.534;6.722;2023-06-04T01:00:00;101432.72;;;16.33
15333;BMP180;7766;51.534;6.722;2023-06-04T01:01:06;101428.63;;;16.43
15333;BMP180;7766;51.534;6.722;2023-06-04T01:02:17;101435.81;;;16.49
15333;BMP180;7766;51.534;6.722;2023-06-04T01:03:24;101428.06;;;16.54
15333;BMP180;7766;51.534;6.722;2023-06-04T01:04:34;101428.84;;;16.42
15333;BMP180;7766;51.534;6.722;2023-06-04T01:05:51;101433.75;;;16.45
15333;BMP180;7766;51.534;6.722;2023-06-04T01:06:57;101427.25;;;16.47
15333;BMP180;7766;51.534;6.722;2023-06-04T01:08:01;101434.16;;;16.48
15333;BMP180;7766;51.534;6.722;2023-06-04T01:09:02;101427.78;;;16.18
15333;BMP180;7766;51.534;6.722;2023-06-04T01:10:04;101427.78;;;16.18
15333;BMP180;7766;51.534;6.722;2023-06-04T01:11:06;101428.22;;;16.34
15333;BMP180;7766;51.534;6.722;2023-06-04T01:12:07;101427.78;;;16.24
15333;BMP180;7766;51.534;6.722;2023-06-04T01:13:08;101433.69;;;16.20
15333;BMP180;7766;51.534;6.722;2023-06-04T01:14:09;101433.69;;;16.20
15333;BMP180;7766;51.534;6.722;2023-06-04T01:15:11;101425.53;;;16.27
15333;BMP180;7766;51.534;6.722;2023-06-04T01:16:14;101434.94;;;16.30
15333;BMP180;7766;51.534;6.722;2023-06-04T01:17:21;101434.13;;;16.36
15333;BMP180;7766;51.534;6.722;2023-06-04T01:18:27;101437.00;;;16.40
15333;BMP180;7766;51.534;6.722;2023-06-04T01:19:53;101439.25;;;16.43
15333;BMP180;7766;51.534;6.722;2023-06-04T01:21:04;101435.38;;;16.46
15333;BMP180;7766;51.534;6.722;2023-06-04T01:22:15;101443.94;;;16.48
15333;BMP180;7766;51.534;6.722;2023-06-04T01:23:46;101450.91;;;16.49
15333;BMP180;7766;51.534;6.722;2023-06-04T01:24:52;101445.19;;;16.52
15333;BMP180;7766;51.534;6.722;2023-06-04T01:25:54;101453.16;;;16.52
15333;BMP180;7766;51.534;6.722;2023-06-04T01:26:58;101443.53;;;16.51
15333;BMP180;7766;51.534;6.722;2023-06-04T01:28:01;101439.06;;;16.45
15333;BMP180;7766;51.534;6.722;2023-06-04T01:29:04;101452.34;;;16.45
15333;BMP180;7766;51.534;6.722;2023-06-04T01:30:05;101443.94;;;16.48
15333;BMP180;7766;51.534;6.722;2023-06-04T01:31:07;101443.94;;;16.48
15333;BMP180;7766;51.534;6.722;2023-06-04T01:32:09;101441.50;;;16.46
15333;BMP180;7766;51.534;6.722;2023-06-04T01:33:17;101444.38;;;16.45
15333;BMP180;7766;51.534;6.722;2023-06-04T01:34:19;101447.63;;;16.47
15333;BMP180;7766;51.534;6.722;2023-06-04T01:35:21;101445.59;;;16.49
15333;BMP180;7766;51.534;6.722;2023-06-04T01:36:22;101442.50;;;16.45
15333;BMP180;7766;51.534;6.722;2023-06-04T01:37:23;101442.34;;;16.47
15333;BMP180;7766;51.534;6.722;2023-06-04T01:38:25;101449.47;;;16.46
15333;BMP180;7766;51.534;6.722;2023-06-04T01:39:26;101446.22;;;16.44
15333;BMP180;7766;51.534;6.722;2023-06-04T01:40:27;101453.34;;;16.44
15333;BMP180;7766;51.534;6.722;2023-06-04T01:41:28;101443.56;;;16.44
15333;BMP180;7766;51.534;6.722;2023-06-04T01:42:29;101446.38;;;16.43
15333;BMP180;7766;51.534;6.722;2023-06-04T01:43:30;101444.78;;;16.42
15333;BMP180;7766;51.534;6.722;2023-06-04T01:44:36;101444.78;;;16.42
15333;BMP180;7766;51.534;6.722;2023-06-04T01:45:37;101442.91;;;16.36
15333;BMP180;7766;51.534;6.722;2023-06-04T01:46:38;101446.19;;;16.38
15333;BMP180;7766;51.534;6.722;2023-06-04T01:47:39;101442.09;;;16.36
15333;BMP180;7766;51.534;6.722;2023-06-04T01:48:41;101442.91;;;16.36
15333;BMP180;7766;51.534;6.722;2023-06-04T01:49:42;101434.97;;;16.36
15333;BMP180;7766;51.534;6.722;2023-06-04T01:50:43;101437.00;;;16.34
15333;BMP180;7766;51.534;6.722;2023-06-04T01:51:44;101437.19;;;16.33
15333;BMP180;7766;51.534;6.722;2023-06-04T01:52:45;101432.09;;;16.31
15333;BMP180;7766;51.534;6.722;2023-06-04T01:53:46;101429.44;;;16.31
15333;BMP180;7766;51.534;6.722;2023-06-04T01:54:47;101431.47;;;16.29
15333;BMP180;7766;51.534;6.722;2023-06-04T01:55:53;101429.22;;;16.26
15333;BMP180;7766;51.534;6.722;2023-06-04T01:56:55;101435.53;;;16.25
15333;BMP180;7766;51.534;6.722;2023-06-04T01:57:56;101436.56;;;16.24
15333;BMP180;7766;51.534;6.722;2023-06-04T01:58:56;101432.47;;;16.22
15333;BMP180;7766;51.534;6.722;2023-06-04T01:59:57;101436.34;;;16.20
15333;BMP180;7766;51.534;6.722;2023-06-04T02:00:58;101439.59;;;16.21
15333;BMP180;7766;51.534;6.722;2023-06-04T02:02:00;101434.69;;;16.19
15333;BMP180;7766;51.534;6.722;2023-06-04T02:03:03;101433.91;;;16.18
15333;BMP180;7766;51.534;6.722;2023-06-04T02:04:05;101431.66;;;16.15
15333;BMP180;7766;51.534;6.722;2023-06-04T02:05:05;101429.19;;;16.14
15333;BMP180;7766;51.534;6.722;2023-06-04T02:06:10;101446.72;;;16.15
15333;BMP180;7766;51.534;6.722;2023-06-04T02:07:12;101427.97;;;16.10
15333;BMP180;7766;51.534;6.722;2023-06-04T02:08:18;101440.78;;;16.06
15333;BMP180;7766;51.534;6.722;2023-06-04T02:09:21;101444.03;;;16.02
15333;BMP180;7766;51.534;6.722;2023-06-04T02:10:22;101444.81;;;15.96
15333;BMP180;7766;51.534;6.722;2023-06-04T02:11:24;101443.31;;;15.88
15333;BMP180;7766;51.534;6.722;2023-06-04T02:12:25;101448.84;;;15.86
15333;BMP180;7766;51.534;6.722;2023-06-04T02:13:26;101444.94;;;15.82
15333;BMP180;7766;51.534;6.722;2023-06-04T02:14:27;101446.13;;;15.80
15333;BMP180;7766;51.534;6.722;2023-06-04T02:15:29;101450.22;;;15.76
15333;BMP180;7766;51.534;6.722;2023-06-04T02:16:30;101444.44;;;15.66
15333;BMP180;7766;51.534;6.722;2023-06-04T02:17:31;101446.47;;;15.64
15333;BMP180;7766;51.534;6.722;2023-06-04T02:18:33;101448.47;;;15.56
15333;BMP180;7766;51.534;6.722;2023-06-04T02:19:34;101453.31;;;15.53
15333;BMP180;7766;51.534;6.722;2023-06-04T02:20:37;101457.38;;;15.49
15333;BMP180;7766;51.534;6.722;2023-06-04T02:21:38;66029.41;;;-132.42
15333;BMP180;7766;51.534;6.722;2023-06-04T02:22:39;66029.41;;;-132.42
15333;BMP180;7766;51.534;6.722;2023-06-04T02:23:40;66029.41;;;-132.42
15333;BMP180;7766;51.534;6.722;2023-06-04T02:24:41;66029.41;;;-132.42
15333;BMP180;7766;51.534;6.722;2023-06-04T02:25:43;66029.41;;;-132.42
15333;BMP180;7766;51.534;6.722;2023-06-04T02:26:47;66029.41;;;-132.42
15333;BMP180;7766;51.534;6.722;2023-06-04T02:27:48;66029.41;;;-132.42
15333;BMP180;7766;51.534;6.722;2023-06-04T02:28:49;66029.41;;;-132.42
15333;BMP180;7766;51.534;6.722;2023-06-04T02:29:50;66029.41;;;-132.42
15333;BMP180;7766;51.534;6.722;2023-06-04T02:30:51;66029.41;;;-132.42
15333;BMP180;7766;51.534;6.722;2023-06-04T02:31:52;66029.41;;;-132.42
15333;BMP180;7766;51.534;6.722;2023-06-04T02:32:53;66029.41;;;-132.42
15333;BMP180;7766;51.534;6.722;2023-06-04T02:33:56;66029.41;;;-132.42
15333;BMP180;7766;51.534;6.722;2023-06-04T02:34:56;66029.41;;;-132.42
15333;BMP180;7766;51.534;6.722;2023-06-04T02:35:57;66029.41;;;-132.42
15333;BMP180;7766;51.534;6.722;2023-06-04T02:36:58;66029.41;;;-132.42
15333;BMP180;7766;51.534;6.722;2023-06-04T02:38:00;66029.41;;;-132.42
15333;BMP180;7766;51.534;6.722;2023-06-04T02:39:01;66029.41;;;-132.42
15333;BMP180;7766;51.534;6.722;2023-06-04T02:40:02;66029.41;;;-132.42
15333;BMP180;7766;51.534;6.722;2023-06-04T02:41:03;66029.41;;;-132.42
15333;BMP180;7766;51.534;6.722;2023-06-04T02:42:05;66029.41;;;-132.42
15333;BMP180;7766;51.534;6.722;2023-06-04T02:43:06;66029.41;;;-132.42
15333;BMP180;7766;51.534;6.722;2023-06-04T02:44:06;66029.41;;;-132.42
15333;BMP180;7766;51.534;6.722;2023-06-04T02:45:08;66029.41;;;-132.42
15333;BMP180;7766;51.534;6.722;2023-06-04T02:46:09;66029.41;;;-132.42
15333;BMP180;7766;51.534;6.722;2023-06-04T02:47:10;66029.41;;;-132.42
15333;BMP180;7766;51.534;6.722;2023-06-04T02:48:11;66029.41;;;-132.42
15333;BMP180;7766;51.534;6.722;2023-06-04T02:49:12;66029.41;;;-132.42
15333;BMP180;7766;51.534;6.722;2023-06-04T02:50:15;66029.41;;;-132.42
15333;BMP180;7766;51.534;6.722;2023-06-04T02:51:16;66029.41;;;-132.42
15333;BMP180;7766;51.534;6.722;2023-06-04T02:52:18;66029.41;;;-132.42
15333;BMP180;7766;51.534;6.722;2023-06-04T02:53:19;66029.41;;;-132.42
15333;BMP180;7766;51.534;6.722;2023-06-04T02:54:21;66029.41;;;-132.42
15333;BMP180;7766;51.534;6.722;2023-06-04T02:55:22;66029.41;;;-132.42
15333;BMP180;7766;51.534;6.722;2023-06-04T02:56:23;66029.41;;;-132.42
15333;BMP180;7766;51.534;6.722;2023-06-04T02:57:24;66029.41;;;-132.42
15333;BMP180;7766;51.534;6.722;2023-06-04T02:58:25;66029.41;;;-132.42
15333;BMP180;7766;51.534;6.722;2023-06-04T02:59:26;66029.41;;;-132.42
15333;BMP180;7766;51.534;6.722;2023-06-04T03:00:26;66029.41;;;-132.42
15333;BMP180;7766;51.534;6.722;2023-06-04T03:01:28;66029.41;;;-132.42
15333;BMP180;7766;51.534;6.722;2023-06-04T03:02:29;66029.41;;;-132.42
15333;BMP180;7766;51.534;6.722;2023-06-04T03:03:30;66029.41;;;-132.42
15333;BMP180;7766;51.534;6.722;2023-06-04T03:04:32;66029.41;;;-132.42
15333;BMP180;7766;51.534;6.722;2023-06-04T03:05:35;66029.41;;;-132.42
15333;BMP180;7766;51.534;6.722;2023-06-04T03:06:37;66029.41;;;-132.42
15333;BMP180;7766;51.534;6.722;2023-06-04T03:07:40;66029.41;;;-132.42
15333;BMP180;7766;51.534;6.722;2023-06-04T03:08:42;66029.41;;;-132.42
15333;BMP180;7766;51.534;6.722;2023-06-04T03:09:43;66029.41;;;-132.42
15333;BMP180;7766;51.534;6.722;2023-06-04T03:10:44;66029.41;;;-132.42
15333;BMP180;7766;51.534;6.722;2023-06-04T03:11:45;66029.41;;;-132.42
15333;BMP180;7766;51.534;6.722;2023-06-04T03:12:46;66029.41;;;-132.42
15333;BMP180;7766;51.534;6.722;2023-06-04T03:13:48;66029.41;;;-132.42
15333;BMP180;7766;51.534;6.722;2023-06-04T03:14:49;66029.41;;;-132.42
15333;BMP180;7766;51.534;6.722;2023-06-04T03:15:50;66029.41;;;-132.42
15333;BMP180;7766;51.534;6.722;2023-06-04T03:16:52;66029.41;;;-132.42
15333;BMP180;7766;51.534;6.722;2023-06-04T03:17:54;66029.41;;;-132.42
15333;BMP180;7766;51.534;6.722;2023-06-04T03:18:55;66029.41;;;-132.42
15333;BMP180;7766;51.534;6.722;2023-06-04T03:19:57;66029.41;;;-132.42
15333;BMP180;7766;51.534;6.722;2023-06-04T03:20:58;66029.41;;;-132.42
15333;BMP180;7766;51.534;6.722;2023-06-04T03:21:59;66029.41;;;-132.42
15333;BMP180;7766;51.534;6.722;2023-06-04T03:23:01;66029.41;;;-132.42
15333;BMP180;7766;51.534;6.722;2023-06-04T03:24:02;66029.41;;;-132.42
15333;BMP180;7766;51.534;6.722;2023-06-04T03:25:04;66029.41;;;-132.42
15333;BMP180;7766;51.534;6.722;2023-06-04T03:26:06;66029.41;;;-132.42
15333;BMP180;7766;51.534;6.722;2023-06-04T03:27:08;66029.41;;;-132.42
15333;BMP180;7766;51.534;6.722;2023-06-04T03:28:10;66029.41;;;-132.42
15333;BMP180;7766;51.534;6.722;2023-06-04T03:29:11;66029.41;;;-132.42
15333;BMP180;7766;51.534;6.722;2023-06-04T03:30:12;66029.41;;;-132.42
15333;BMP180;7766;51.534;6.722;2023-06-04T03:31:13;66029.41;;;-132.42
15333;BMP180;7766;51.534;6.722;2023-06-04T03:32:15;66029.41;;;-132.42
15333;BMP180;7766;51.534;6.722;2023-06-04T03:33:16;66029.41;;;-132.42
15333;BMP180;7766;51.534;6.722;2023-06-04T03:34:17;66029.41;;;-132.42
15333;BMP180;7766;51.534;6.722;2023-06-04T03:35:18;66029.41;;;-132.42
15333;BMP180;7766;51.534;6.722;2023-06-04T03:36:19;66029.41;;;-132.42
15333;BMP180;7766;51.534;6.722;2023-06-04T03:37:20;66029.41;;;-132.42
15333;BMP180;7766;51.534;6.722;2023-06-04T03:38:21;66029.41;;;-132.42
15333;BMP180;7766;51.534;6.722;2023-06-04T03:39:22;66029.41;;;-132.42
15333;BMP180;7766;51.534;6.722;2023-06-04T03:40:23;66029.41;;;-132.42
15333;BMP180;7766;51.534;6.722;2023-06-04T03:41:25;66029.41;;;-132.42
15333;BMP180;7766;51.534;6.722;2023-06-04T03:42:26;66029.41;;;-132.42
15333;BMP180;7766;51.534;6.722;2023-06-04T03:43:27;66029.41;;;-132.42
15333;BMP180;7766;51.534;6.722;2023-06-04T03:44:29;66029.41;;;-132.42
15333;BMP180;7766;51.534;6.722;2023-06-04T03:45:30;66029.41;;;-132.42
15333;BMP180;7766;51.534;6.722;2023-06-04T03:46:30;66029.41;;;-132.42
15333;BMP180;7766;51.534;6.722;2023-06-04T03:47:34;66029.41;;;-132.42
15333;BMP180;7766;51.534;6.722;2023-06-04T03:48:35;66029.41;;;-132.42
15333;BMP180;7766;51.534;6.722;2023-06-04T03:49:36;66029.41;;;-132.42
15333;BMP180;7766;51.534;6.722;2023-06-04T03:50:37;66029.41;;;-132.42
15333;BMP180;7766;51.534;6.722;2023-06-04T03:51:38;66029.41;;;-132.42
15333;BMP180;7766;51.534;6.722;2023-06-04T03:52:40;66029.41;;;-132.42
15333;BMP180;7766;51.534;6.722;2023-06-04T03:53:41;66029.41;;;-132.42
15333;BMP180;7766;51.534;6.722;2023-06-04T03:54:42;66029.41;;;-132.42
15333;BMP180;7766;51.534;6.722;2023-06-04T03:55:43;66029.41;;;-132.42
15333;BMP180;7766;51.534;6.722;2023-06-04T03:56:45;66029.41;;;-132.42
15333;BMP180;7766;51.534;6.722;2023-06-04T03:57:47;66029.41;;;-132.42
15333;BMP180;7766;51.534;6.722;2023-06-04T03:58:48;66029.41;;;-132.42
15333;BMP180;7766;51.534;6.722;2023-06-04T03:59:49;66029.41;;;-132.42
15333;BMP180;7766;51.534;6.722;2023-06-04T04:00:50;66029.41;;;-132.42
15333;BMP180;7766;51.534;6.722;2023-06-04T04:01:52;66029.41;;;-132.42
15333;BMP180;7766;51.534;6.722;2023-06-04T04:02:53;66029.41;;;-132.42
15333;BMP180;7766;51.534;6.722;2023-06-04T04:03:54;66029.41;;;-132.42
15333;BMP180;7766;51.534;6.722;2023-06-04T04:04:55;66029.41;;;-132.42
15333;BMP180;7766;51.534;6.722;2023-06-04T04:05:58;66029.41;;;-132.42
15333;BMP180;7766;51.534;6.722;2023-06-04T04:06:59;66029.41;;;-132.42
15333;BMP180;7766;51.534;6.722;2023-06-04T04:08:01;66029.41;;;-132.42
15333;BMP180;7766;51.534;6.722;2023-06-04T04:09:02;66029.41;;;-132.42
15333;BMP180;7766;51.534;6.722;2023-06-04T04:10:05;66029.41;;;-132.42
15333;BMP180;7766;51.534;6.722;2023-06-04T04:11:06;66029.41;;;-132.42
15333;BMP180;7766;51.534;6.722;2023-06-04T04:12:07;66029.41;;;-132.42
15333;BMP180;7766;51.534;6.722;2023-06-04T04:13:08;66029.41;;;-132.42
15333;BMP180;7766;51.534;6.722;2023-06-04T04:14:10;66029.41;;;-132.42
15333;BMP180;7766;51.534;6.722;2023-06-04T04:15:11;66029.41;;;-132.42
15333;BMP180;7766;51.534;6.722;2023-06-04T04:16:12;66029.41;;;-132.42
15333;BMP180;7766;51.534;6.722;2023-06-04T04:17:14;66029.41;;;-132.42
15333;BMP180;7766;51.534;6.722;2023-06-04T04:18:15;66029.41;;;-132.42
15333;BMP180;7766;51.534;6.722;2023-06-04T04:19:17;66029.41;;;-132.42
15333;BMP180;7766;51.534;6.722;2023-06-04T04:20:18;66029.41;;;-132.42
15333;BMP180;7766;51.534;6.722;2023-06-04T04:21:19;66029.41;;;-132.42
15333;BMP180;7766;51.534;6.722;2023-06-04T04:22:21;66029.41;;;-132.42
15333;BMP180;7766;51.534;6.722;2023-06-04T04:23:21;66029.41;;;-132.42
15333;BMP180;7766;51.534;6.722;2023-06-04T04:24:24;66029.41;;;-132.42
15333;BMP180;7766;51.534;6.722;2023-06-04T04:25:25;66029.41;;;-132.42
15333;BMP180;7766;51.534;6.722;2023-06-04T04:26:27;66029.41;;;-132.42
15333;BMP180;7766;51.534;6.722;2023-06-04T04:27:29;66029.41;;;-132.42
15333;BMP180;7766;51.534;6.722;2023-06-04T04:28:31;66029.41;;;-132.42
15333;BMP180;7766;51.534;6.722;2023-06-04T04:29:33;66029.41;;;-132.42
15333;BMP180;7766;51.534;6.722;2023-06-04T04:30:35;66029.41;;;-132.42
15333;BMP180;7766;51.534;6.722;2023-06-04T04:31:35;66029.41;;;-132.42
15333;BMP180;7766;51.534;6.722;2023-06-04T04:32:37;66029.41;;;-132.42
15333;BMP180;7766;51.534;6.722;2023-06-04T04:33:39;66029.41;;;-132.42
15333;BMP180;7766;51.534;6.722;2023-06-04T04:34:51;66029.41;;;-132.42
15333;BMP180;7766;51.534;6.722;2023-06-04T04:35:52;66029.41;;;-132.42
15333;BMP180;7766;51.534;6.722;2023-06-04T04:36:54;66029.41;;;-132.42
15333;BMP180;7766;51.534;6.722;2023-06-04T04:37:55;66029.41;;;-132.42
15333;BMP180;7766;51.534;6.722;2023-06-04T04:38:56;66029.41;;;-132.42
15333;BMP180;7766;51.534;6.722;2023-06-04T04:39:59;66029.41;;;-132.42
15333;BMP180;7766;51.534;6.722;2023-06-04T04:41:00;66029.41;;;-132.42
15333;BMP180;7766;51.534;6.722;2023-06-04T04:42:02;66029.41;;;-132.42
15333;BMP180;7766;51.534;6.722;2023-06-04T04:43:03;66029.41;;;-132.42
15333;BMP180;7766;51.534;6.722;2023-06-04T04:44:05;66029.41;;;-132.42
15333;BMP180;7766;51.534;6.722;2023-06-04T04:45:06;66029.41;;;-132.42
15333;BMP180;7766;51.534;6.722;2023-06-04T04:46:08;66029.41;;;-132.42
15333;BMP180;7766;51.534;6.722;2023-06-04T04:47:09;66029.41;;;-132.42
15333;BMP180;7766;51.534;6.722;2023-06-04T04:48:10;66029.41;;;-132.42
15333;BMP180;7766;51.534;6.722;2023-06-04T04:49:11;66029.41;;;-132.42
15333;BMP180;7766;51.534;6.722;2023-06-04T04:50:12;66029.41;;;-132.42
15333;BMP180;7766;51.534;6.722;2023-06-04T04:51:13;66029.41;;;-132.42
15333;BMP180;7766;51.534;6.722;2023-06-04T04:52:14;66029.41;;;-132.42
15333;BMP180;7766;51.534;6.722;2023-06-04T04:53:15;66029.41;;;-132.42
15333;BMP180;7766;51.534;6.722;2023-06-04T04:54:16;66029.41;;;-132.42
15333;BMP180;7766;51.534;6.722;2023-06-04T04:55:17;66029.41;;;-132.42
15333;BMP180;7766;51.534;6.722;2023-06-04T04:56:18;66029.41;;;-132.42
15333;BMP180;7766;51.534;6.722;2023-06-04T04:57:19;66029.41;;;-132.42
15333;BMP180;7766;51.534;6.722;2023-06-04T04:58:20;66029.41;;;-132.42
15333;BMP180;7766;51.534;6.722;2023-06-04T04:59:21;66029.41;;;-132.42
15333;BMP180;7766;51.534;6.722;2023-06-04T05:00:22;66029.41;;;-132.42
15333;BMP180;7766;51.534;6.722;2023-06-04T05:01:23;66029.41;;;-132.42
15333;BMP180;7766;51.534;6.722;2023-06-04T05:02:26;66029.41;;;-132.42
15333;BMP180;7766;51.534;6.722;2023-06-04T05:03:26;66029.41;;;-132.42
15333;BMP180;7766;51.534;6.722;2023-06-04T05:04:27;66029.41;;;-132.42
15333;BMP180;7766;51.534;6.722;2023-06-04T05:05:28;66029.41;;;-132.42
15333;BMP180;7766;51.534;6.722;2023-06-04T05:06:30;66029.41;;;-132.42
15333;BMP180;7766;51.534;6.722;2023-06-04T05:07:30;66029.41;;;-132.42
15333;BMP180;7766;51.534;6.722;2023-06-04T05:08:32;66029.41;;;-132.42
15333;BMP180;7766;51.534;6.722;2023-06-04T05:09:33;66029.41;;;-132.42
15333;BMP180;7766;51.534;6.722;2023-06-04T05:10:34;66029.41;;;-132.42
15333;BMP180;7766;51.534;6.722;2023-06-04T05:11:36;66029.41;;;-132.42
15333;BMP180;7766;51.534;6.722;2023-06-04T05:12:37;66029.41;;;-132.42
15333;BMP180;7766;51.534;6.722;2023-06-04T05:13:38;66029.41;;;-132.42
15333;BMP180;7766;51.534;6.722;2023-06-04T05:14:39;66029.41;;;-132.42
15333;BMP180;7766;51.534;6.722;2023-06-04T05:15:40;66029.41;;;-132.42
15333;BMP180;7766;51.534;6.722;2023-06-04T05:16:41;66029.41;;;-132.42
15333;BMP180;7766;51.534;6.722;2023-06-04T05:17:42;66029.41;;;-132.42
15333;BMP180;7766;51.534;6.722;2023-06-04T05:18:43;66029.41;;;-132.42
15333;BMP180;7766;51.534;6.722;2023-06-04T05:19:45;66029.41;;;-132.42
15333;BMP180;7766;51.534;6.722;2023-06-04T05:20:48;66029.41;;;-132.42
15333;BMP180;7766;51.534;6.722;2023-06-04T05:21:50;66029.41;;;-132.42
15333;BMP180;7766;51.534;6.722;2023-06-04T05:22:51;66029.41;;;-132.42
15333;BMP180;7766;51.534;6.722;2023-06-04T05:23:52;66029.41;;;-132.42
15333;BMP180;7766;51.534;6.722;2023-06-04T05:24:53;66029.41;;;-132.42
15333;BMP180;7766;51.534;6.722;2023-06-04T05:25:54;66029.41;;;-132.42
15333;BMP180;7766;51.534;6.722;2023-06-04T05:26:56;66029.41;;;-132.42
15333;BMP180;7766;51.534;6.722;2023-06-04T05:27:58;66029.41;;;-132.42
15333;BMP180;7766;51.534;6.722;2023-06-04T05:28:59;66029.41;;;-132.42
15333;BMP180;7766;51.534;6.722;2023-06-04T05:30:01;66029.41;;;-132.42
15333;BMP180;7766;51.534;6.722;2023-06-04T05:31:03;66029.41;;;-132.42
15333;BMP180;7766;51.534;6.722;2023-06-04T05:32:05;66029.41;;;-132.42
15333;BMP180;7766;51.534;6.722;2023-06-04T05:33:05;66029.41;;;-132.42
15333;BMP180;7766;51.534;6.722;2023-06-04T05:34:07;66029.41;;;-132.42
15333;BMP180;7766;51.534;6.722;2023-06-04T05:35:09;66029.41;;;-132.42
15333;BMP180;7766;51.534;6.722;2023-06-04T05:36:10;66029.41;;;-132.42
15333;BMP180;7766;51.534;6.722;2023-06-04T05:37:11;66029.41;;;-132.42
15333;BMP180;7766;51.534;6.722;2023-06-04T05:38:12;66029.41;;;-132.42
15333;BMP180;7766;51.534;6.722;2023-06-04T05:39:17;66029.41;;;-132.42
15333;BMP180;7766;51.534;6.722;2023-06-04T05:40:20;66029.41;;;-132.42
15333;BMP180;7766;51.534;6.722;2023-06-04T05:41:21;66029.41;;;-132.42
15333;BMP180;7766;51.534;6.722;2023-06-04T05:42:24;66029.41;;;-132.42
15333;BMP180;7766;51.534;6.722;2023-06-04T05:43:25;66029.41;;;-132.42
15333;BMP180;7766;51.534;6.722;2023-06-04T05:44:26;66029.41;;;-132.42
15333;BMP180;7766;51.534;6.722;2023-06-04T05:45:27;66029.41;;;-132.42
15333;BMP180;7766;51.534;6.722;2023-06-04T05:46:28;66029.41;;;-132.42
15333;BMP180;7766;51.534;6.722;2023-06-04T05:47:29;66029.41;;;-132.42
15333;BMP180;7766;51.534;6.722;2023-06-04T05:48:30;66029.41;;;-132.42
15333;BMP180;7766;51.534;6.722;2023-06-04T05:49:33;66029.41;;;-132.42
15333;BMP180;7766;51.534;6.722;2023-06-04T05:50:34;66029.41;;;-132.42
15333;BMP180;7766;51.534;6.722;2023-06-04T05:51:36;66029.41;;;-132.42
15333;BMP180;7766;51.534;6.722;2023-06-04T05:52:37;66029.41;;;-132.42
15333;BMP180;7766;51.534;6.722;2023-06-04T05:53:38;66029.41;;;-132.42